Time;durP1;ratioP1;P1;durP2;ratioP2;P2;SDS_P1;SDS_P2;PMS_P1;PMS_P2;Temp;Humidity;BMP_temperature;BMP_pressure;BME280_temperature;BME280_humidity;BME280_pressure;Samples;Min_cycle;Max_cycle;Signal;HPM_P1;HPM_P2
2022/06/26 00:00:46;;;;;;;0.50;0.50;;;17.20;99.90;;;;;;5053248;28;20412;-69
2022/06/26 00:03:12;;;;;;;0.30;0.30;;;17.20;99.90;;;;;;5053237;28;20416;-69
2022/06/26 00:05:37;;;;;;;0.30;0.30;;;17.30;99.90;;;;;;5053656;28;20284;-68
2022/06/26 00:08:03;;;;;;;0.30;0.30;;;17.30;99.90;;;;;;5056881;28;20198;-69
2022/06/26 00:10:29;;;;;;;0.30;0.30;;;17.20;99.90;;;;;;5057072;28;20189;-69
2022/06/26 00:12:55;;;;;;;0.30;0.30;;;17.40;99.90;;;;;;5055739;28;20457;-69
2022/06/26 00:15:21;;;;;;;0.30;0.30;;;17.40;99.90;;;;;;5056821;28;20436;-68
2022/06/26 00:17:47;;;;;;;0.30;0.30;;;17.40;99.90;;;;;;5057089;28;20261;-68
2022/06/26 00:20:12;;;;;;;0.60;0.60;;;17.30;99.90;;;;;;5056539;28;20413;-68
2022/06/26 00:22:38;;;;;;;0.50;0.50;;;17.40;99.90;;;;;;5057206;28;20182;-68
2022/06/26 00:25:04;;;;;;;0.30;0.30;;;17.40;99.90;;;;;;5056662;28;20704;-67
2022/06/26 00:27:30;;;;;;;0.30;0.30;;;17.40;99.90;;;;;;5056609;28;20177;-68
2022/06/26 00:29:55;;;;;;;0.30;0.30;;;17.40;99.90;;;;;;5056685;28;20404;-68
2022/06/26 00:32:21;;;;;;;0.50;0.50;;;17.30;99.90;;;;;;5056800;28;20170;-69
2022/06/26 00:34:47;;;;;;;0.30;0.30;;;17.40;99.90;;;;;;5056512;28;20229;-68
2022/06/26 00:37:12;;;;;;;0.40;0.40;;;17.40;99.90;;;;;;5056479;28;20174;-68
2022/06/26 00:39:38;;;;;;;0.30;0.30;;;17.40;99.90;;;;;;5056196;28;20298;-69
2022/06/26 00:42:04;;;;;;;0.30;0.30;;;17.50;99.90;;;;;;5056570;28;20627;-67
2022/06/26 00:44:30;;;;;;;0.30;0.30;;;17.40;99.90;;;;;;5056146;28;20285;-68
2022/06/26 00:46:56;;;;;;;0.30;0.30;;;17.40;99.90;;;;;;5056202;28;20447;-69
2022/06/26 00:49:21;;;;;;;0.30;0.30;;;17.40;99.90;;;;;;5055946;28;20913;-68
2022/06/26 00:51:50;;;;;;;0.30;0.30;;;17.30;99.90;;;;;;5054729;28;20178;-69
2022/06/26 00:54:16;;;;;;;0.30;0.30;;;17.40;99.90;;;;;;5055923;28;20550;-68
2022/06/26 00:56:42;;;;;;;0.30;0.30;;;17.40;99.90;;;;;;5056194;28;20424;-67
2022/06/26 00:59:08;;;;;;;0.30;0.30;;;17.40;99.90;;;;;;5055914;28;20461;-69
2022/06/26 01:01:34;;;;;;;0.30;0.30;;;17.40;99.90;;;;;;5056117;28;20413;-68
2022/06/26 01:04:01;;;;;;;0.30;0.30;;;17.40;99.90;;;;;;5055916;28;20471;-69
2022/06/26 01:06:27;;;;;;;0.30;0.30;;;17.40;99.90;;;;;;5055840;28;20178;-68
2022/06/26 01:08:54;;;;;;;0.37;0.37;;;17.40;99.90;;;;;;5055837;28;20486;-68
2022/06/26 01:11:20;;;;;;;0.30;0.30;;;17.40;99.90;;;;;;5055900;28;20949;-68
2022/06/26 01:13:51;;;;;;;0.30;0.30;;;17.40;99.90;;;;;;5055961;28;20428;-69
2022/06/26 01:16:18;;;;;;;0.30;0.30;;;17.40;99.90;;;;;;5055787;28;20463;-69
2022/06/26 01:18:48;;;;;;;0.30;0.30;;;17.40;99.90;;;;;;5053586;28;20467;-69
2022/06/26 01:21:15;;;;;;;0.30;0.30;;;17.30;99.90;;;;;;5055874;28;20455;-69
2022/06/26 01:23:42;;;;;;;0.30;0.30;;;17.30;99.90;;;;;;5055518;28;20448;-69
2022/06/26 01:26:07;;;;;;;0.30;0.30;;;17.30;99.90;;;;;;5055654;28;20404;-69
2022/06/26 01:28:33;;;;;;;0.30;0.30;;;17.20;99.90;;;;;;5055459;28;20535;-68
2022/06/26 01:30:59;;;;;;;0.30;0.30;;;17.20;99.90;;;;;;5055614;28;20401;-68
2022/06/26 01:33:24;;;;;;;0.30;0.30;;;17.20;99.90;;;;;;5055683;28;20166;-69
2022/06/26 01:35:50;;;;;;;0.30;0.30;;;17.10;99.90;;;;;;5054054;28;20235;-67
2022/06/26 01:38:20;;;;;;;0.30;0.30;;;17.10;99.90;;;;;;5055242;28;20166;-69
2022/06/26 01:40:46;;;;;;;0.40;0.40;;;17.10;99.90;;;;;;5055591;28;20432;-68
2022/06/26 01:43:17;;;;;;;0.30;0.30;;;17.00;99.90;;;;;;5055373;28;20436;-69
2022/06/26 01:45:52;;;;;;;0.30;0.30;;;17.00;99.90;;;;;;5055113;28;20190;-68
2022/06/26 01:48:18;;;;;;;0.30;0.30;;;16.90;99.90;;;;;;5055242;28;20408;-68
2022/06/26 01:50:45;;;;;;;0.30;0.30;;;16.90;99.90;;;;;;5055187;28;20420;-67
2022/06/26 01:53:11;;;;;;;0.30;0.30;;;16.90;99.90;;;;;;5055218;28;20496;-69
2022/06/26 01:55:37;;;;;;;0.30;0.30;;;16.80;99.90;;;;;;5055029;28;20440;-68
2022/06/26 01:58:03;;;;;;;0.30;0.30;;;16.80;99.90;;;;;;5054942;28;20416;-69
2022/06/26 02:00:30;;;;;;;0.30;0.30;;;16.80;99.90;;;;;;5054945;28;20417;-67
2022/06/26 02:02:56;;;;;;;0.60;0.60;;;16.90;99.90;;;;;;5054910;28;20172;-69
2022/06/26 02:05:22;;;;;;;0.30;0.30;;;16.80;99.90;;;;;;5054586;28;20550;-67
2022/06/26 02:07:48;;;;;;;0.30;0.30;;;16.80;99.90;;;;;;5054910;28;20451;-69
2022/06/26 02:15:42;;;;;;;0.30;0.30;;;16.70;99.90;;;;;;5054610;28;20427;-69
2022/06/26 02:18:07;;;;;;;0.30;0.30;;;16.60;99.90;;;;;;5054741;28;20400;-68
2022/06/26 02:20:34;;;;;;;0.30;0.30;;;16.50;99.90;;;;;;5054577;28;20252;-68
2022/06/26 02:23:00;;;;;;;0.30;0.30;;;16.40;99.90;;;;;;5054693;28;20170;-68
2022/06/26 02:25:26;;;;;;;0.30;0.30;;;16.30;99.90;;;;;;5054740;28;20528;-67
2022/06/26 02:27:52;;;;;;;0.30;0.30;;;16.20;99.90;;;;;;5053145;28;20177;-68
2022/06/26 02:30:17;;;;;;;0.30;0.30;;;16.20;99.90;;;;;;5053315;28;20167;-69
2022/06/26 02:32:43;;;;;;;0.30;0.30;;;16.10;99.90;;;;;;5054429;28;20396;-68
2022/06/26 02:35:10;;;;;;;0.30;0.30;;;16.00;99.90;;;;;;5054156;28;20431;-68
2022/06/26 02:37:36;;;;;;;0.30;0.30;;;16.00;99.90;;;;;;5053976;28;20169;-68
2022/06/26 02:40:03;;;;;;;0.30;0.30;;;15.90;99.90;;;;;;5054014;28;20911;-69
2022/06/26 02:42:29;;;;;;;0.30;0.30;;;15.90;99.90;;;;;;5054067;28;20561;-68
2022/06/26 02:44:54;;;;;;;0.30;0.30;;;15.80;99.90;;;;;;5053949;28;20549;-69
2022/06/26 02:47:20;;;;;;;0.30;0.30;;;15.70;99.90;;;;;;5054386;28;20162;-67
2022/06/26 02:49:46;;;;;;;0.30;0.30;;;15.60;99.90;;;;;;5052763;28;20184;-69
2022/06/26 02:52:11;;;;;;;0.30;0.30;;;15.60;99.90;;;;;;5053922;28;20165;-67
2022/06/26 02:54:37;;;;;;;0.30;0.30;;;15.60;99.90;;;;;;5054514;28;20201;-69
2022/06/26 02:57:03;;;;;;;0.30;0.30;;;15.50;99.90;;;;;;5053871;28;20230;-68
2022/06/26 02:59:28;;;;;;;0.30;0.30;;;15.50;99.90;;;;;;5053770;28;20178;-67
2022/06/26 03:01:54;;;;;;;0.30;0.30;;;15.40;99.90;;;;;;5053993;28;20925;-68
2022/06/26 03:04:20;;;;;;;0.60;0.50;;;15.40;99.90;;;;;;5053802;28;20278;-67
2022/06/26 03:06:45;;;;;;;0.30;0.30;;;15.30;99.90;;;;;;5053567;28;20185;-68
2022/06/26 03:09:12;;;;;;;0.37;0.37;;;15.30;99.90;;;;;;5053622;28;20171;-67
2022/06/26 03:11:40;;;;;;;0.30;0.30;;;15.30;99.90;;;;;;5053671;28;20170;-68
2022/06/26 03:14:07;;;;;;;0.30;0.30;;;15.30;99.90;;;;;;5052332;28;20436;-67
2022/06/26 03:16:32;;;;;;;0.40;0.40;;;15.20;99.90;;;;;;5053601;28;20494;-68
2022/06/26 03:18:58;;;;;;;0.40;0.40;;;15.20;99.90;;;;;;5053513;28;20444;-67
2022/06/26 03:21:23;;;;;;;0.30;0.30;;;15.20;99.90;;;;;;5053656;28;20173;-68
2022/06/26 03:24:01;;;;;;;0.30;0.30;;;15.20;99.90;;;;;;5053331;28;20228;-68
2022/06/26 03:26:28;;;;;;;0.30;0.30;;;15.10;99.90;;;;;;5053817;28;20154;-68
2022/06/26 03:28:53;;;;;;;0.33;0.33;;;15.10;99.90;;;;;;5053268;28;20401;-68
2022/06/26 03:31:19;;;;;;;0.30;0.30;;;15.00;99.90;;;;;;5053647;28;20435;-69
2022/06/26 03:33:45;;;;;;;0.40;0.40;;;15.00;99.90;;;;;;5054002;28;20627;-69
2022/06/26 03:36:11;;;;;;;1.00;0.87;;;15.00;99.90;;;;;;5053025;28;20245;-68
2022/06/26 03:38:37;;;;;;;0.30;0.30;;;15.00;99.90;;;;;;5053227;28;20494;-68
2022/06/26 03:41:03;;;;;;;0.30;0.30;;;14.90;99.90;;;;;;5055011;28;20921;-68
2022/06/26 03:43:29;;;;;;;0.30;0.30;;;14.90;99.90;;;;;;5057448;28;20405;-69
2022/06/26 03:45:55;;;;;;;0.30;0.30;;;14.80;99.90;;;;;;5057315;28;20995;-68
2022/06/26 03:48:20;;;;;;;0.30;0.30;;;14.90;99.90;;;;;;5057058;28;20236;-68
2022/06/26 03:50:46;;;;;;;0.30;0.30;;;14.90;99.90;;;;;;5057349;28;20167;-67
2022/06/26 03:53:12;;;;;;;0.30;0.30;;;14.90;99.90;;;;;;5057307;28;20642;-68
2022/06/26 03:55:37;;;;;;;0.30;0.30;;;14.90;99.90;;;;;;5057222;28;20197;-68
2022/06/26 03:58:03;;;;;;;0.30;0.30;;;14.80;99.90;;;;;;5057269;28;20166;-68
2022/06/26 04:00:29;;;;;;;0.30;0.30;;;14.90;99.90;;;;;;5057412;28;20205;-68
2022/06/26 04:02:55;;;;;;;0.30;0.30;;;15.00;99.90;;;;;;5057013;28;20400;-69
2022/06/26 04:05:21;;;;;;;0.30;0.30;;;15.00;99.90;;;;;;5057298;28;20216;-68
2022/06/26 04:07:47;;;;;;;0.30;0.30;;;15.10;99.90;;;;;;5057105;28;20728;-68
2022/06/26 04:10:12;;;;;;;0.30;0.30;;;15.20;99.90;;;;;;5056915;28;20496;-68
2022/06/26 04:12:38;;;;;;;0.30;0.30;;;15.30;99.90;;;;;;5057169;28;20171;-68
2022/06/26 04:15:05;;;;;;;0.30;0.30;;;15.40;99.90;;;;;;5055696;28;20204;-67
2022/06/26 04:17:31;;;;;;;0.30;0.30;;;15.50;99.90;;;;;;5056967;28;20181;-68
2022/06/26 04:19:56;;;;;;;0.40;0.40;;;15.60;99.90;;;;;;5056694;28;20403;-68
2022/06/26 04:22:22;;;;;;;0.40;0.40;;;15.80;99.90;;;;;;5056953;28;20243;-67
2022/06/26 04:24:48;;;;;;;0.30;0.30;;;15.90;99.90;;;;;;5055329;28;20242;-67
2022/06/26 04:27:14;;;;;;;0.30;0.30;;;16.10;99.90;;;;;;5056816;28;20406;-69
2022/06/26 04:29:40;;;;;;;0.30;0.30;;;16.40;99.90;;;;;;5056721;28;20813;-68
2022/06/26 04:32:06;;;;;;;0.30;0.30;;;16.50;99.90;;;;;;5056732;28;20166;-68
2022/06/26 04:34:31;;;;;;;0.30;0.30;;;16.80;99.90;;;;;;5057156;28;20515;-68
2022/06/26 04:36:57;;;;;;;0.30;0.30;;;16.80;99.90;;;;;;5056752;28;20886;-68
2022/06/26 04:39:23;;;;;;;0.30;0.30;;;16.90;99.90;;;;;;5056360;28;20228;-68
2022/06/26 04:41:48;;;;;;;0.50;0.50;;;17.00;99.90;;;;;;5056556;28;20193;-69
2022/06/26 04:44:14;;;;;;;0.30;0.30;;;16.90;99.90;;;;;;5056317;28;20209;-69
2022/06/26 04:46:41;;;;;;;0.30;0.30;;;17.00;99.90;;;;;;5056331;28;20166;-68
2022/06/26 04:49:08;;;;;;;0.30;0.30;;;17.10;99.90;;;;;;5056129;28;20680;-69
2022/06/26 04:51:37;;;;;;;0.30;0.30;;;17.20;99.90;;;;;;5056231;28;20397;-68
2022/06/26 04:54:04;;;;;;;0.40;0.40;;;17.60;99.90;;;;;;5055401;28;20475;-69
2022/06/26 04:56:30;;;;;;;0.30;0.30;;;18.20;99.90;;;;;;5056168;28;20413;-69
2022/06/26 04:58:56;;;;;;;0.30;0.30;;;18.70;99.90;;;;;;5056022;28;20404;-69
2022/06/26 05:01:23;;;;;;;0.30;0.30;;;19.00;99.90;;;;;;5056203;28;20415;-68
2022/06/26 05:03:49;;;;;;;0.30;0.30;;;19.10;99.90;;;;;;5055866;28;20491;-69
2022/06/26 05:06:15;;;;;;;0.30;0.30;;;19.40;99.90;;;;;;5055992;28;20427;-69
2022/06/26 05:08:41;;;;;;;0.30;0.30;;;19.60;99.90;;;;;;5055759;28;20223;-68
2022/06/26 05:11:07;;;;;;;0.30;0.30;;;19.60;99.90;;;;;;5056037;28;20965;-68
2022/06/26 05:13:33;;;;;;;0.30;0.30;;;19.50;99.90;;;;;;5055853;28;20170;-68
2022/06/26 05:15:59;;;;;;;0.30;0.30;;;19.30;99.90;;;;;;5055771;28;20200;-69
2022/06/26 05:18:24;;;;;;;0.40;0.40;;;19.20;99.90;;;;;;5055775;28;20497;-70
2022/06/26 05:20:50;;;;;;;0.40;0.40;;;19.00;99.90;;;;;;5055755;28;20398;-69
2022/06/26 05:23:17;;;;;;;0.30;0.30;;;18.90;99.90;;;;;;5055745;28;20168;-69
2022/06/26 05:25:43;;;;;;;0.30;0.30;;;18.70;99.90;;;;;;5055478;28;20203;-68
2022/06/26 05:28:09;;;;;;;0.30;0.30;;;18.60;99.90;;;;;;5055583;28;20401;-68
2022/06/26 05:30:35;;;;;;;0.30;0.30;;;18.60;99.90;;;;;;5055596;28;20757;-69
2022/06/26 05:33:01;;;;;;;0.30;0.30;;;18.70;99.90;;;;;;5055950;28;20403;-69
2022/06/26 05:35:27;;;;;;;0.30;0.30;;;18.90;99.90;;;;;;5055381;28;20204;-68
2022/06/26 05:37:53;;;;;;;0.30;0.30;;;18.80;99.90;;;;;;5055483;28;20737;-67
2022/06/26 05:40:18;;;;;;;0.30;0.30;;;18.90;99.90;;;;;;5055163;28;20410;-69
2022/06/26 05:42:44;;;;;;;0.30;0.30;;;19.20;99.90;;;;;;5055457;28;20220;-69
2022/06/26 05:45:11;;;;;;;0.30;0.30;;;19.50;99.90;;;;;;5055111;28;20281;-68
2022/06/26 05:47:36;;;;;;;0.30;0.30;;;19.50;99.90;;;;;;5053963;28;20175;-69
2022/06/26 05:50:02;;;;;;;0.30;0.30;;;19.60;99.90;;;;;;5055038;28;20759;-69
2022/06/26 05:52:28;;;;;;;0.30;0.30;;;19.60;99.90;;;;;;5055173;28;20217;-69
2022/06/26 05:54:55;;;;;;;0.30;0.30;;;19.60;99.90;;;;;;5054966;28;20861;-69
2022/06/26 05:57:20;;;;;;;0.30;0.30;;;19.70;99.90;;;;;;5055279;28;20177;-69
2022/06/26 05:59:47;;;;;;;0.30;0.30;;;20.00;99.90;;;;;;5054743;28;20419;-68
2022/06/26 06:02:13;;;;;;;0.30;0.30;;;20.40;99.90;;;;;;5054913;28;20181;-69
2022/06/26 06:04:38;;;;;;;0.30;0.30;;;20.80;99.90;;;;;;5054531;28;20461;-69
2022/06/26 06:07:04;;;;;;;0.30;0.30;;;21.40;99.90;;;;;;5054840;28;20434;-68
2022/06/26 06:09:30;;;;;;;0.30;0.30;;;21.60;99.90;;;;;;5054609;28;20172;-69
2022/06/26 06:11:56;;;;;;;0.30;0.30;;;21.80;98.90;;;;;;5054742;28;20383;-69
2022/06/26 06:14:22;;;;;;;0.40;0.40;;;22.30;98.90;;;;;;5054771;28;20535;-69
2022/06/26 06:16:48;;;;;;;0.30;0.30;;;23.10;97.80;;;;;;5054642;28;20260;-68
2022/06/26 06:19:14;;;;;;;1.50;1.40;;;24.20;97.00;;;;;;5054492;28;20436;-69
2022/06/26 06:21:39;;;;;;;0.30;0.30;;;25.20;93.70;;;;;;5053359;28;20177;-69
2022/06/26 06:24:05;;;;;;;2.63;2.53;;;26.20;93.40;;;;;;5054473;28;20204;-69
2022/06/26 06:26:31;;;;;;;0.30;0.30;;;26.90;91.30;;;;;;5054508;28;20174;-69
2022/06/26 06:28:56;;;;;;;0.30;0.30;;;27.30;90.40;;;;;;5054334;28;20407;-69
2022/06/26 06:31:22;;;;;;;0.60;0.60;;;28.00;88.60;;;;;;5054339;28;20167;-69
2022/06/26 06:33:48;;;;;;;0.30;0.30;;;29.00;86.30;;;;;;5054491;28;20175;-69
2022/06/26 06:36:14;;;;;;;0.30;0.30;;;30.00;84.10;;;;;;5054287;28;20193;-70
2022/06/26 06:38:39;;;;;;;0.30;0.30;;;30.90;81.20;;;;;;5054138;28;20669;-70
2022/06/26 06:41:05;;;;;;;0.30;0.30;;;31.50;77.10;;;;;;5054360;28;20167;-71
2022/06/26 06:43:30;;;;;;;0.30;0.30;;;32.30;73.70;;;;;;5054135;28;20178;-69
2022/06/26 06:45:56;;;;;;;0.30;0.30;;;33.30;69.60;;;;;;5054115;28;20166;-69
2022/06/26 06:48:24;;;;;;;0.30;0.30;;;34.60;66.70;;;;;;5053910;28;20200;-70
2022/06/26 06:50:53;;;;;;;0.30;0.30;;;35.80;59.90;;;;;;5054237;28;20653;-70
2022/06/26 06:53:20;;;;;;;0.30;0.30;;;36.50;54.90;;;;;;5054281;28;20397;-69
2022/06/26 06:55:46;;;;;;;0.40;0.40;;;36.90;55.70;;;;;;5053997;28;20432;-70
2022/06/26 06:58:12;;;;;;;0.40;0.30;;;37.50;54.30;;;;;;5053868;28;20397;-69
2022/06/26 07:00:37;;;;;;;0.30;0.30;;;38.10;50.70;;;;;;5053864;28;20192;-70
2022/06/26 07:03:04;;;;;;;0.30;0.30;;;38.40;49.30;;;;;;5053829;28;20265;-70
2022/06/26 07:05:31;;;;;;;0.30;0.30;;;38.60;47.70;;;;;;5053537;28;20206;-69
2022/06/26 07:07:57;;;;;;;0.47;0.47;;;38.40;47.50;;;;;;5053741;28;20778;-70
2022/06/26 07:10:23;;;;;;;0.30;0.30;;;38.20;46.50;;;;;;5053855;28;20396;-70
2022/06/26 07:12:56;;;;;;;0.30;0.30;;;38.10;45.90;;;;;;5053534;28;20786;-70
2022/06/26 07:15:23;;;;;;;0.30;0.30;;;37.20;46.10;;;;;;5052998;28;20937;-70
2022/06/26 07:17:49;;;;;;;0.30;0.30;;;35.80;48.30;;;;;;5053811;28;20408;-70
2022/06/26 07:20:15;;;;;;;0.33;0.33;;;35.70;47.80;;;;;;5053528;28;20489;-69
2022/06/26 07:22:40;;;;;;;0.30;0.30;;;34.60;48.20;;;;;;5053744;28;20505;-69
2022/06/26 07:25:07;;;;;;;0.30;0.30;;;33.20;50.40;;;;;;5052064;28;20606;-69
2022/06/26 07:27:32;;;;;;;0.30;0.30;;;32.50;53.70;;;;;;5053448;28;20182;-69
2022/06/26 07:29:58;;;;;;;0.40;0.40;;;32.50;55.30;;;;;;5053265;28;20434;-69
2022/06/26 07:32:24;;;;;;;0.40;0.30;;;32.20;53.60;;;;;;5053601;28;20201;-70
2022/06/26 07:34:50;;;;;;;0.37;0.37;;;31.30;53.90;;;;;;5053445;28;20190;-69
2022/06/26 07:37:15;;;;;;;0.40;0.40;;;30.00;56.80;;;;;;5053375;28;20401;-70
2022/06/26 07:39:41;;;;;;;0.40;0.40;;;28.50;58.90;;;;;;5053111;28;20201;-68
2022/06/26 07:42:07;;;;;;;0.30;0.30;;;27.60;61.90;;;;;;5053292;28;20193;-69
2022/06/26 07:44:33;;;;;;;0.30;0.30;;;26.90;63.40;;;;;;5053108;28;20206;-69
2022/06/26 07:46:58;;;;;;;0.30;0.30;;;26.20;67.10;;;;;;5053483;28;20446;-70
2022/06/26 07:49:24;;;;;;;0.30;0.30;;;25.90;69.10;;;;;;5053193;28;20220;-69
2022/06/26 07:51:50;;;;;;;0.40;0.40;;;25.70;69.80;;;;;;5053405;28;20173;-68
2022/06/26 07:54:16;;;;;;;0.40;0.40;;;25.60;73.60;;;;;;5052075;28;20553;-69
2022/06/26 07:56:43;;;;;;;0.30;0.30;;;25.50;74.30;;;;;;5053136;28;20412;-68
2022/06/26 07:59:08;;;;;;;0.40;0.40;;;25.40;76.10;;;;;;5053121;28;20405;-69
2022/06/26 08:01:34;;;;;;;0.30;0.30;;;25.30;78.30;;;;;;5053352;28;20411;-69
2022/06/26 08:04:01;;;;;;;0.30;0.30;;;25.30;78.80;;;;;;5053014;28;20207;-69
2022/06/26 08:06:27;;;;;;;0.30;0.30;;;25.60;80.80;;;;;;5052980;28;20428;-70
2022/06/26 08:08:53;;;;;;;0.30;0.30;;;25.70;80.90;;;;;;5052807;28;20401;-69
2022/06/26 08:11:19;;;;;;;0.33;0.33;;;25.80;81.30;;;;;;5053001;28;20403;-70
2022/06/26 08:13:45;;;;;;;0.40;0.40;;;26.00;81.20;;;;;;5053128;28;20400;-70
2022/06/26 08:16:11;;;;;;;0.30;0.30;;;26.10;79.00;;;;;;5053013;28;20403;-69
2022/06/26 08:18:37;;;;;;;0.30;0.30;;;26.40;78.30;;;;;;5052837;28;20401;-69
2022/06/26 08:23:47;;;;;;;0.30;0.30;;;26.20;79.50;;;;;;5053279;28;20313;-69
2022/06/26 08:26:13;;;;;;;0.40;0.40;;;25.90;80.90;;;;;;5053051;28;20433;-69
2022/06/26 08:28:39;;;;;;;0.30;0.30;;;25.70;81.70;;;;;;5056439;28;20162;-70
2022/06/26 08:31:05;;;;;;;0.30;0.30;;;25.50;84.40;;;;;;5056752;28;20397;-70
2022/06/26 08:33:30;;;;;;;0.30;0.30;;;25.20;84.50;;;;;;5056650;28;20253;-69
2022/06/26 08:35:56;;;;;;;0.40;0.40;;;24.90;86.10;;;;;;5056403;28;20300;-70
2022/06/26 08:38:21;;;;;;;0.83;0.83;;;24.70;86.80;;;;;;5056335;28;20173;-68
2022/06/26 08:40:47;;;;;;;0.30;0.30;;;24.50;88.10;;;;;;5056516;28;20189;-68
2022/06/26 08:43:13;;;;;;;0.30;0.30;;;24.50;90.20;;;;;;5056467;28;20193;-70
2022/06/26 08:45:42;;;;;;;0.30;0.30;;;24.30;90.00;;;;;;5056229;28;20237;-69
2022/06/26 08:48:12;;;;;;;0.40;0.40;;;24.20;90.60;;;;;;5056397;28;20407;-69
2022/06/26 08:50:38;;;;;;;0.30;0.30;;;24.00;90.90;;;;;;5056356;28;20860;-68
2022/06/26 08:53:05;;;;;;;0.30;0.30;;;24.00;91.60;;;;;;5056236;28;20386;-69
2022/06/26 08:55:31;;;;;;;0.30;0.30;;;24.10;92.00;;;;;;5056093;28;20817;-69
2022/06/26 08:57:57;;;;;;;0.30;0.30;;;24.00;92.00;;;;;;5056046;28;20383;-68
2022/06/26 09:00:23;;;;;;;0.50;0.50;;;24.10;92.50;;;;;;5056305;28;20432;-68
2022/06/26 09:02:48;;;;;;;0.40;0.40;;;24.30;92.30;;;;;;5056207;28;20486;-69
2022/06/26 09:05:14;;;;;;;0.40;0.40;;;24.60;92.40;;;;;;5055738;28;20208;-69
2022/06/26 09:07:52;;;;;;;0.30;0.30;;;24.80;92.20;;;;;;5055984;28;20176;-69
2022/06/26 09:10:19;;;;;;;0.40;0.40;;;25.40;91.70;;;;;;5055821;28;20628;-69
2022/06/26 09:12:52;;;;;;;0.30;0.30;;;25.90;90.30;;;;;;5054651;28;20942;-70
2022/06/26 09:15:19;;;;;;;0.37;0.37;;;26.40;90.00;;;;;;5054996;28;20432;-69
2022/06/26 09:18:03;;;;;;;0.30;0.30;;;26.50;87.60;;;;;;5055673;28;20407;-70
2022/06/26 09:20:35;;;;;;;0.30;0.30;;;26.80;87.40;;;;;;5055762;28;20420;-68
2022/06/26 09:23:02;;;;;;;0.30;0.30;;;27.70;86.30;;;;;;5055910;28;20393;-70
2022/06/26 09:25:38;;;;;;;0.70;0.70;;;28.30;81.50;;;;;;5055538;28;20460;-70
2022/06/26 09:28:06;;;;;;;0.30;0.30;;;28.90;79.80;;;;;;5055557;28;20484;-70
2022/06/26 09:30:32;;;;;;;0.30;0.30;;;29.00;79.50;;;;;;5055471;28;20412;-69
2022/06/26 09:32:58;;;;;;;0.30;0.30;;;28.90;76.40;;;;;;5055504;28;20401;-70
2022/06/26 09:35:24;;;;;;;0.40;0.40;;;28.50;77.70;;;;;;5055344;28;20224;-70
2022/06/26 09:37:49;;;;;;;0.60;0.60;;;28.40;80.20;;;;;;5055509;28;20178;-70
2022/06/26 09:40:16;;;;;;;0.30;0.30;;;29.10;82.40;;;;;;5055008;28;20401;-70
2022/06/26 09:42:41;;;;;;;0.40;0.40;;;29.40;70.40;;;;;;5055422;28;20197;-68
2022/06/26 09:45:09;;;;;;;0.30;0.30;;;29.60;70.80;;;;;;5055374;28;20552;-69
2022/06/26 09:47:35;;;;;;;0.30;0.30;;;30.10;71.50;;;;;;5055458;28;20163;-70
2022/06/26 09:50:04;;;;;;;0.30;0.30;;;32.00;71.20;;;;;;5055097;28;20412;-70
2022/06/26 09:52:31;;;;;;;0.30;0.30;;;33.00;60.90;;;;;;5055102;28;20167;-69
2022/06/26 09:54:58;;;;;;;0.30;0.30;;;32.90;60.60;;;;;;5055108;28;20940;-70
2022/06/26 09:57:28;;;;;;;0.30;0.30;;;32.40;59.70;;;;;;5054977;28;20465;-69
2022/06/26 09:59:55;;;;;;;0.30;0.30;;;31.80;60.20;;;;;;5054796;28;20407;-69
2022/06/26 10:07:53;;;;;;;0.30;0.30;;;29.70;70.00;;;;;;5055126;28;20411;-69
2022/06/26 10:10:24;;;;;;;0.40;0.40;;;29.50;68.60;;;;;;5054667;28;20397;-69
2022/06/26 10:12:55;;;;;;;0.40;0.40;;;30.10;68.20;;;;;;5054841;28;20432;-70
2022/06/26 10:15:27;;;;;;;0.30;0.30;;;30.70;66.10;;;;;;5054713;28;20420;-70
2022/06/26 10:18:09;;;;;;;0.40;0.40;;;30.80;65.30;;;;;;5054755;28;20432;-70
2022/06/26 10:20:37;;;;;;;0.43;0.43;;;30.90;64.00;;;;;;5054656;28;20479;-71
2022/06/26 10:23:03;;;;;;;0.40;0.40;;;30.90;63.00;;;;;;5054560;28;20432;-71
2022/06/26 10:25:30;;;;;;;0.80;0.50;;;30.90;63.30;;;;;;5054379;28;20483;-70
2022/06/26 10:27:57;;;;;;;0.40;0.40;;;30.00;64.00;;;;;;5054451;28;20162;-71
2022/06/26 10:30:25;;;;;;;0.30;0.30;;;29.90;62.60;;;;;;5054525;28;20397;-70
2022/06/26 10:33:10;;;;;;;0.30;0.30;;;29.60;65.90;;;;;;5054681;28;20396;-69
2022/06/26 10:35:42;;;;;;;0.30;0.30;;;29.90;67.20;;;;;;5054260;28;20432;-69
2022/06/26 10:38:26;;;;;;;0.30;0.30;;;30.10;68.30;;;;;;5054246;28;20409;-71
2022/06/26 10:44:16;;;;;;;0.30;0.30;;;31.40;62.20;;;;;;5054125;28;20852;-70
2022/06/26 10:46:48;;;;;;;0.30;0.30;;;31.60;62.90;;;;;;5054178;28;20888;-70
2022/06/26 10:49:14;;;;;;;0.43;0.43;;;30.80;55.90;;;;;;5053907;28;20946;-70
2022/06/26 10:51:44;;;;;;;0.30;0.30;;;30.80;60.60;;;;;;5053209;28;20401;-70
2022/06/26 10:54:20;;;;;;;0.40;0.40;;;30.90;62.10;;;;;;5053941;28;20226;-70
2022/06/26 10:56:47;;;;;;;0.30;0.30;;;31.10;61.30;;;;;;5054020;28;20404;-70
2022/06/26 10:59:17;;;;;;;0.30;0.30;;;31.30;57.10;;;;;;5053719;28;20440;-70
2022/06/26 11:01:44;;;;;;;0.30;0.30;;;31.30;57.60;;;;;;5053758;28;20470;-69
2022/06/26 11:04:10;;;;;;;0.30;0.30;;;30.90;58.20;;;;;;5053647;28;20462;-69
2022/06/26 11:06:42;;;;;;;0.40;0.40;;;30.50;59.30;;;;;;5053690;28;20416;-70
2022/06/26 11:09:09;;;;;;;0.30;0.30;;;30.30;62.60;;;;;;5053715;28;20254;-70
2022/06/26 11:11:35;;;;;;;0.33;0.33;;;30.00;55.70;;;;;;5053238;28;20747;-70
2022/06/26 11:14:07;;;;;;;0.30;0.30;;;29.90;58.50;;;;;;5053720;28;20498;-69
2022/06/26 11:16:42;;;;;;;0.30;0.30;;;29.70;54.80;;;;;;5053646;28;20812;-70
2022/06/26 11:19:29;;;;;;;0.30;0.30;;;29.20;55.80;;;;;;5053526;28;20396;-70
2022/06/26 11:22:05;;;;;;;0.40;0.40;;;28.80;58.80;;;;;;5053681;28;20408;-70
2022/06/26 11:24:31;;;;;;;0.60;0.60;;;28.50;58.40;;;;;;5053460;28;20452;-70
2022/06/26 11:26:57;;;;;;;0.40;0.40;;;28.60;57.90;;;;;;5053431;28;20451;-70
2022/06/26 11:29:24;;;;;;;0.30;0.30;;;28.10;57.80;;;;;;5053380;28;20393;-69
2022/06/26 11:31:50;;;;;;;0.30;0.30;;;27.70;56.60;;;;;;5053399;28;20401;-69
2022/06/26 11:34:16;;;;;;;0.30;0.30;;;27.60;60.70;;;;;;5053334;28;20472;-69
2022/06/26 11:36:53;;;;;;;0.30;0.30;;;27.50;58.50;;;;;;5053374;28;20943;-69
2022/06/26 11:39:19;;;;;;;0.77;0.77;;;27.70;58.00;;;;;;5053185;28;20496;-70
2022/06/26 11:41:46;;;;;;;0.57;0.57;;;27.60;60.00;;;;;;5053232;28;20447;-70
2022/06/26 11:44:12;;;;;;;0.30;0.30;;;27.20;62.70;;;;;;5053450;28;20814;-71
2022/06/26 11:46:38;;;;;;;0.33;0.33;;;27.40;59.00;;;;;;5053283;28;20397;-70
2022/06/26 11:49:04;;;;;;;0.30;0.30;;;27.80;59.20;;;;;;5053080;28;20897;-69
2022/06/26 11:51:31;;;;;;;0.30;0.30;;;28.30;60.20;;;;;;5053388;28;20401;-71
2022/06/26 11:53:57;;;;;;;0.30;0.30;;;29.10;63.40;;;;;;5053363;28;20197;-70
2022/06/26 11:56:27;;;;;;;0.30;0.30;;;29.40;56.70;;;;;;5053181;28;20405;-69
2022/06/26 11:58:55;;;;;;;0.30;0.30;;;29.40;58.20;;;;;;5053297;28;20170;-69
2022/06/26 12:01:22;;;;;;;0.30;0.30;;;29.00;57.70;;;;;;5053872;28;20915;-70
2022/06/26 12:03:47;;;;;;;0.50;0.50;;;28.50;58.50;;;;;;5057139;28;20408;-70
2022/06/26 12:06:26;;;;;;;0.30;0.30;;;28.50;66.10;;;;;;5057021;28;20429;-70
2022/06/26 12:08:51;;;;;;;0.40;0.40;;;28.40;58.20;;;;;;5056988;28;20167;-69
2022/06/26 12:11:17;;;;;;;0.30;0.30;;;28.20;60.60;;;;;;5057060;28;20450;-69
2022/06/26 12:13:43;;;;;;;0.40;0.40;;;27.80;60.00;;;;;;5057028;28;20193;-69
2022/06/26 12:16:10;;;;;;;0.30;0.30;;;27.30;63.90;;;;;;5056992;28;20165;-70
2022/06/26 12:18:40;;;;;;;0.40;0.40;;;26.90;64.00;;;;;;5056823;28;20404;-69
2022/06/26 12:21:20;;;;;;;0.30;0.30;;;26.40;67.80;;;;;;5056798;28;20409;-70
2022/06/26 12:23:47;;;;;;;0.40;0.40;;;26.40;69.10;;;;;;5056633;28;20367;-69
2022/06/26 12:26:22;;;;;;;0.30;0.30;;;26.70;69.70;;;;;;5056773;28;20761;-69
2022/06/26 12:29:00;;;;;;;0.40;0.40;;;26.80;69.50;;;;;;5056690;28;20382;-70
2022/06/26 12:31:25;;;;;;;0.40;0.40;;;27.00;66.00;;;;;;5056632;28;20412;-69
2022/06/26 12:33:51;;;;;;;0.30;0.30;;;27.30;69.30;;;;;;5056577;28;20992;-70
2022/06/26 12:36:17;;;;;;;0.30;0.30;;;27.40;68.30;;;;;;5056588;28;20535;-70
2022/06/26 12:38:45;;;;;;;0.30;0.30;;;27.40;65.80;;;;;;5056340;28;20194;-70
2022/06/26 12:41:17;;;;;;;0.30;0.30;;;27.60;66.90;;;;;;5056744;28;20401;-71
2022/06/26 12:43:54;;;;;;;0.30;0.30;;;28.00;73.60;;;;;;5056550;28;20401;-69
2022/06/26 12:46:20;;;;;;;0.40;0.40;;;28.30;67.40;;;;;;5056899;28;20395;-70
2022/06/26 12:48:46;;;;;;;0.30;0.30;;;28.60;63.30;;;;;;5056274;28;20397;-70
2022/06/26 12:51:13;;;;;;;0.57;0.57;;;28.50;63.60;;;;;;5056427;28;20397;-70
2022/06/26 12:53:40;;;;;;;0.50;0.50;;;28.10;65.90;;;;;;5056297;28;20401;-70
2022/06/26 12:56:06;;;;;;;0.30;0.30;;;27.60;64.60;;;;;;5056150;28;20397;-70
2022/06/26 12:58:32;;;;;;;0.30;0.30;;;27.30;68.90;;;;;;5056087;28;20424;-69
2022/06/26 13:00:58;;;;;;;0.30;0.30;;;26.80;72.60;;;;;;5056112;28;20425;-69
2022/06/26 13:03:23;;;;;;;0.30;0.30;;;26.40;74.20;;;;;;5056092;28;20465;-70